sensor_id;sensor_type;location;lat;lon;timestamp;pressure;altitude;pressure_sealevel;temperature;humidity
68179;BME280;69812;42.632;23.440;2023-05-20T00:01:22;95393.47;;;8.29;94.05
68179;BME280;69812;42.632;23.440;2023-05-20T00:03:50;95386.94;;;8.25;93.89
68179;BME280;69812;42.632;23.440;2023-05-20T00:06:15;95403.59;;;8.31;93.65
68179;BME280;69812;42.632;23.440;2023-05-20T00:08:43;95406.00;;;8.32;93.30
68179;BME280;69812;42.632;23.440;2023-05-20T00:11:10;95407.88;;;8.30;92.97
68179;BME280;69812;42.632;23.440;2023-05-20T00:13:36;95393.31;;;8.19;92.75
68179;BME280;69812;42.632;23.440;2023-05-20T00:16:03;95402.47;;;8.11;92.64
68179;BME280;69812;42.632;23.440;2023-05-20T00:18:29;95412.47;;;8.14;92.89
68179;BME280;69812;42.632;23.440;2023-05-20T00:20:54;95417.22;;;8.07;92.67
68179;BME280;69812;42.632;23.440;2023-05-20T00:23:22;95412.56;;;8.01;92.53
68179;BME280;69812;42.632;23.440;2023-05-20T00:25:48;95410.00;;;8.01;92.44
68179;BME280;69812;42.632;23.440;2023-05-20T00:28:14;95409.19;;;8.00;92.33
68179;BME280;69812;42.632;23.440;2023-05-20T00:30:39;95404.00;;;7.89;92.31
68179;BME280;69812;42.632;23.440;2023-05-20T00:33:07;95395.25;;;7.80;92.95
68179;BME280;69812;42.632;23.440;2023-05-20T00:35:35;95387.34;;;7.72;92.80
68179;BME280;69812;42.632;23.440;2023-05-20T00:38:01;95399.41;;;7.70;92.96
68179;BME280;69812;42.632;23.440;2023-05-20T00:40:26;95376.75;;;7.66;93.02
68179;BME280;69812;42.632;23.440;2023-05-20T00:42:51;95381.31;;;7.73;93.70
68179;BME280;69812;42.632;23.440;2023-05-20T00:45:17;95377.59;;;7.77;93.79
68179;BME280;69812;42.632;23.440;2023-05-20T00:47:44;95362.94;;;7.68;93.80
68179;BME280;69812;42.632;23.440;2023-05-20T00:50:10;95351.50;;;7.61;93.83
68179;BME280;69812;42.632;23.440;2023-05-20T00:52:36;95357.66;;;7.58;93.75
68179;BME280;69812;42.632;23.440;2023-05-20T00:55:02;95368.97;;;7.67;93.93
68179;BME280;69812;42.632;23.440;2023-05-20T00:57:28;95371.38;;;7.57;93.92
68179;BME280;69812;42.632;23.440;2023-05-20T00:59:54;95378.44;;;7.54;94.00
68179;BME280;69812;42.632;23.440;2023-05-20T01:02:27;95377.78;;;7.63;93.99
68179;BME280;69812;42.632;23.440;2023-05-20T01:04:53;95384.97;;;7.58;93.96
68179;BME280;69812;42.632;23.440;2023-05-20T01:07:20;95379.09;;;7.45;93.87
68179;BME280;69812;42.632;23.440;2023-05-20T01:09:46;95380.22;;;7.40;94.20
68179;BME280;69812;42.632;23.440;2023-05-20T01:12:33;95394.59;;;7.41;94.67
68179;BME280;69812;42.632;23.440;2023-05-20T01:15:08;95390.97;;;7.33;95.11
68179;BME280;69812;42.632;23.440;2023-05-20T01:17:38;95377.31;;;7.21;95.21
68179;BME280;69812;42.632;23.440;2023-05-20T01:20:05;95392.81;;;7.31;95.14
68179;BME280;69812;42.632;23.440;2023-05-20T01:22:36;95381.09;;;7.15;95.25
68179;BME280;69812;42.632;23.440;2023-05-20T01:25:02;95384.31;;;7.06;95.45
68179;BME280;69812;42.632;23.440;2023-05-20T01:27:27;95377.69;;;7.04;95.88
68179;BME280;69812;42.632;23.440;2023-05-20T01:29:54;95383.41;;;7.07;96.02
68179;BME280;69812;42.632;23.440;2023-05-20T01:32:25;95376.78;;;6.92;96.16
68179;BME280;69812;42.632;23.440;2023-05-20T01:34:54;95365.75;;;6.91;96.19
68179;BME280;69812;42.632;23.440;2023-05-20T01:37:21;95381.56;;;6.96;95.88
68179;BME280;69812;42.632;23.440;2023-05-20T01:39:49;95390.69;;;7.25;95.63
68179;BME280;69812;42.632;23.440;2023-05-20T01:42:15;95387.66;;;7.07;95.37
68179;BME280;69812;42.632;23.440;2023-05-20T01:44:42;95391.97;;;7.06;95.57
68179;BME280;69812;42.632;23.440;2023-05-20T01:47:07;95385.22;;;7.05;95.42
68179;BME280;69812;42.632;23.440;2023-05-20T01:49:32;95383.72;;;7.03;95.29
68179;BME280;69812;42.632;23.440;2023-05-20T01:51:58;95378.41;;;6.93;95.27
68179;BME280;69812;42.632;23.440;2023-05-20T01:54:23;95386.13;;;7.04;94.85
68179;BME280;69812;42.632;23.440;2023-05-20T01:56:49;95380.25;;;6.91;94.41
68179;BME280;69812;42.632;23.440;2023-05-20T01:59:14;95394.34;;;6.96;94.46
68179;BME280;69812;42.632;23.440;2023-05-20T02:01:40;95384.94;;;6.97;94.54
68179;BME280;69812;42.632;23.440;2023-05-20T02:04:05;95366.59;;;6.92;94.54
68179;BME280;69812;42.632;23.440;2023-05-20T02:06:31;95365.88;;;6.90;94.69
68179;BME280;69812;42.632;23.440;2023-05-20T02:08:56;95381.69;;;6.95;94.48
68179;BME280;69812;42.632;23.440;2023-05-20T02:11:22;95389.22;;;6.96;94.75
68179;BME280;69812;42.632;23.440;2023-05-20T02:13:48;95371.25;;;6.85;94.33
68179;BME280;69812;42.632;23.440;2023-05-20T02:16:14;95373.13;;;6.83;94.35
68179;BME280;69812;42.632;23.440;2023-05-20T02:18:39;95375.06;;;6.79;94.42
68179;BME280;69812;42.632;23.440;2023-05-20T02:21:06;95368.53;;;6.75;94.30
68179;BME280;69812;42.632;23.440;2023-05-20T02:23:32;95379.44;;;6.77;93.82
68179;BME280;69812;42.632;23.440;2023-05-20T02:25:57;95363.13;;;6.67;94.15
68179;BME280;69812;42.632;23.440;2023-05-20T02:28:23;95353.56;;;6.58;94.05
68179;BME280;69812;42.632;23.440;2023-05-20T02:30:48;95374.16;;;6.68;93.80
68179;BME280;69812;42.632;23.440;2023-05-20T02:33:17;95369.56;;;6.60;93.85
68179;BME280;69812;42.632;23.440;2023-05-20T02:35:43;95356.91;;;6.46;93.82
68179;BME280;69812;42.632;23.440;2023-05-20T02:38:09;95366.81;;;6.50;93.98
68179;BME280;69812;42.632;23.440;2023-05-20T02:40:35;95357.22;;;6.41;93.89
68179;BME280;69812;42.632;23.440;2023-05-20T02:43:00;95358.88;;;6.42;93.95
68179;BME280;69812;42.632;23.440;2023-05-20T02:45:26;95360.31;;;6.46;94.23
68179;BME280;69812;42.632;23.440;2023-05-20T02:47:51;95364.38;;;6.49;94.39
68179;BME280;69812;42.632;23.440;2023-05-20T02:50:16;95361.72;;;6.50;94.60
68179;BME280;69812;42.632;23.440;2023-05-20T02:52:42;95355.41;;;6.43;94.52
68179;BME280;69812;42.632;23.440;2023-05-20T02:55:08;95361.13;;;6.47;94.69
68179;BME280;69812;42.632;23.440;2023-05-20T02:57:34;95359.69;;;6.43;94.89
68179;BME280;69812;42.632;23.440;2023-05-20T03:00:03;95360.09;;;6.49;94.70
68179;BME280;69812;42.632;23.440;2023-05-20T03:02:30;95351.31;;;6.41;94.77
68179;BME280;69812;42.632;23.440;2023-05-20T03:04:56;95371.41;;;6.58;95.49
68179;BME280;69812;42.632;23.440;2023-05-20T03:07:21;95371.09;;;6.63;95.36
68179;BME280;69812;42.632;23.440;2023-05-20T03:09:49;95369.16;;;6.66;95.84
68179;BME280;69812;42.632;23.440;2023-05-20T03:12:17;95358.75;;;6.69;95.82
68179;BME280;69812;42.632;23.440;2023-05-20T03:14:42;95360.44;;;6.94;96.17
68179;BME280;69812;42.632;23.440;2023-05-20T03:17:08;95373.28;;;7.06;95.63
68179;BME280;69812;42.632;23.440;2023-05-20T03:19:36;95383.81;;;7.01;96.24
68179;BME280;69812;42.632;23.440;2023-05-20T03:22:01;95388.28;;;7.10;96.81
68179;BME280;69812;42.632;23.440;2023-05-20T03:24:27;95385.06;;;7.19;97.08
68179;BME280;69812;42.632;23.440;2023-05-20T03:26:53;95391.03;;;7.20;96.98
68179;BME280;69812;42.632;23.440;2023-05-20T03:29:20;95393.41;;;7.34;96.92
68179;BME280;69812;42.632;23.440;2023-05-20T03:31:48;95385.44;;;7.39;96.66
68179;BME280;69812;42.632;23.440;2023-05-20T03:34:14;95392.75;;;7.44;96.93
68179;BME280;69812;42.632;23.440;2023-05-20T03:36:39;95391.44;;;7.51;97.08
68179;BME280;69812;42.632;23.440;2023-05-20T03:39:05;95399.00;;;7.76;96.99
68179;BME280;69812;42.632;23.440;2023-05-20T03:41:31;95407.06;;;7.94;96.87
68179;BME280;69812;42.632;23.440;2023-05-20T03:43:56;95397.31;;;7.99;96.25
68179;BME280;69812;42.632;23.440;2023-05-20T03:46:22;95405.09;;;8.33;96.37
68179;BME280;69812;42.632;23.440;2023-05-20T03:48:47;95389.00;;;9.12;96.82
68179;BME280;69812;42.632;23.440;2023-05-20T03:51:12;95391.03;;;10.16;95.48
68179;BME280;69812;42.632;23.440;2023-05-20T03:53:38;95401.34;;;10.58;94.07
68179;BME280;69812;42.632;23.440;2023-05-20T03:56:03;95397.50;;;10.74;92.88
68179;BME280;69812;42.632;23.440;2023-05-20T03:58:29;95405.03;;;11.46;91.21
68179;BME280;69812;42.632;23.440;2023-05-20T04:00:55;95412.00;;;12.53;89.58
68179;BME280;69812;42.632;23.440;2023-05-20T04:03:20;95411.47;;;13.62;81.26
68179;BME280;69812;42.632;23.440;2023-05-20T04:05:47;95418.88;;;14.64;77.39
68179;BME280;69812;42.632;23.440;2023-05-20T04:08:12;95404.09;;;15.51;75.22
68179;BME280;69812;42.632;23.440;2023-05-20T04:10:41;95414.78;;;16.40;72.92
68179;BME280;69812;42.632;23.440;2023-05-20T04:13:10;95415.16;;;17.17;64.88
68179;BME280;69812;42.632;23.440;2023-05-20T04:15:35;95402.50;;;17.93;58.93
68179;BME280;69812;42.632;23.440;2023-05-20T04:18:01;95417.66;;;18.36;58.86
68179;BME280;69812;42.632;23.440;2023-05-20T04:20:27;95408.22;;;19.11;53.39
68179;BME280;69812;42.632;23.440;2023-05-20T04:22:58;95403.66;;;19.79;51.30
68179;BME280;69812;42.632;23.440;2023-05-20T04:25:24;95414.31;;;20.42;48.41
68179;BME280;69812;42.632;23.440;2023-05-20T04:27:50;95418.28;;;20.87;46.40
68179;BME280;69812;42.632;23.440;2023-05-20T04:30:18;95416.69;;;21.49;45.00
68179;BME280;69812;42.632;23.440;2023-05-20T04:32:44;95411.31;;;22.26;44.39
68179;BME280;69812;42.632;23.440;2023-05-20T04:35:12;95408.28;;;22.82;42.44
68179;BME280;69812;42.632;23.440;2023-05-20T04:37:37;95397.84;;;23.61;40.90
68179;BME280;69812;42.632;23.440;2023-05-20T04:40:04;95412.25;;;23.25;40.39
68179;BME280;69812;42.632;23.440;2023-05-20T04:42:31;95410.78;;;24.01;39.77
68179;BME280;69812;42.632;23.440;2023-05-20T04:44:58;95414.50;;;24.82;37.47
68179;BME280;69812;42.632;23.440;2023-05-20T04:47:26;95421.00;;;25.41;37.23
68179;BME280;69812;42.632;23.440;2023-05-20T04:49:52;95420.09;;;26.02;35.63
68179;BME280;69812;42.632;23.440;2023-05-20T04:52:22;95428.41;;;26.60;34.16
68179;BME280;69812;42.632;23.440;2023-05-20T04:54:47;95421.81;;;27.04;34.03
68179;BME280;69812;42.632;23.440;2023-05-20T04:57:15;95417.97;;;27.48;32.13
68179;BME280;69812;42.632;23.440;2023-05-20T04:59:41;95426.72;;;27.36;32.18
68179;BME280;69812;42.632;23.440;2023-05-20T05:02:07;95418.91;;;27.53;31.51
68179;BME280;69812;42.632;23.440;2023-05-20T05:04:32;95414.00;;;28.14;31.91
68179;BME280;69812;42.632;23.440;2023-05-20T05:06:57;95413.06;;;28.66;30.00
68179;BME280;69812;42.632;23.440;2023-05-20T05:09:23;95414.81;;;28.15;30.75
68179;BME280;69812;42.632;23.440;2023-05-20T05:11:48;95417.00;;;28.63;29.90
68179;BME280;69812;42.632;23.440;2023-05-20T05:14:21;95415.53;;;29.45;29.40
68179;BME280;69812;42.632;23.440;2023-05-20T05:16:48;95411.13;;;29.95;29.47
68179;BME280;69812;42.632;23.440;2023-05-20T05:19:13;95408.38;;;29.85;28.98
68179;BME280;69812;42.632;23.440;2023-05-20T05:21:39;95412.41;;;30.20;28.49
68179;BME280;69812;42.632;23.440;2023-05-20T05:24:04;95402.59;;;30.42;28.65
68179;BME280;69812;42.632;23.440;2023-05-20T05:26:35;95410.38;;;30.86;27.92
68179;BME280;69812;42.632;23.440;2023-05-20T05:29:00;95403.44;;;31.23;27.77
68179;BME280;69812;42.632;23.440;2023-05-20T05:31:25;95402.34;;;31.66;27.26
68179;BME280;69812;42.632;23.440;2023-05-20T05:33:51;95399.03;;;32.07;27.15
68179;BME280;69812;42.632;23.440;2023-05-20T05:36:16;95387.63;;;32.01;26.64
68179;BME280;69812;42.632;23.440;2023-05-20T05:38:42;95400.91;;;32.01;26.04
68179;BME280;69812;42.632;23.440;2023-05-20T05:41:08;95395.88;;;32.92;24.61
68179;BME280;69812;42.632;23.440;2023-05-20T05:43:36;95391.59;;;33.32;23.79
68179;BME280;69812;42.632;23.440;2023-05-20T05:46:01;95396.34;;;34.00;23.58
68179;BME280;69812;42.632;23.440;2023-05-20T05:48:27;95393.78;;;33.90;23.39
68179;BME280;69812;42.632;23.440;2023-05-20T05:50:52;95396.09;;;34.46;22.32
68179;BME280;69812;42.632;23.440;2023-05-20T05:53:17;95390.06;;;34.99;21.61
68179;BME280;69812;42.632;23.440;2023-05-20T05:55:45;95400.41;;;35.78;21.34
68179;BME280;69812;42.632;23.440;2023-05-20T05:58:10;95382.53;;;35.54;21.20
68179;BME280;69812;42.632;23.440;2023-05-20T06:00:36;95383.69;;;34.95;21.06
68179;BME280;69812;42.632;23.440;2023-05-20T06:03:01;95387.25;;;34.51;21.33
68179;BME280;69812;42.632;23.440;2023-05-20T06:05:27;95374.84;;;35.29;20.63
68179;BME280;69812;42.632;23.440;2023-05-20T06:07:52;95384.41;;;34.42;22.59
68179;BME280;69812;42.632;23.440;2023-05-20T06:10:18;95366.22;;;35.80;19.89
68179;BME280;69812;42.632;23.440;2023-05-20T06:12:43;95378.75;;;36.88;20.60
68179;BME280;69812;42.632;23.440;2023-05-20T06:15:09;95374.50;;;37.01;19.69
68179;BME280;69812;42.632;23.440;2023-05-20T06:17:34;95369.16;;;37.01;19.72
68179;BME280;69812;42.632;23.440;2023-05-20T06:20:02;95367.69;;;37.78;20.05
68179;BME280;69812;42.632;23.440;2023-05-20T06:22:27;95366.56;;;38.74;19.14
68179;BME280;69812;42.632;23.440;2023-05-20T06:24:52;95370.72;;;39.52;18.02
68179;BME280;69812;42.632;23.440;2023-05-20T06:27:18;95365.91;;;40.23;17.64
68179;BME280;69812;42.632;23.440;2023-05-20T06:29:44;95359.53;;;39.67;17.68
68179;BME280;69812;42.632;23.440;2023-05-20T06:32:09;95364.94;;;39.76;16.66
68179;BME280;69812;42.632;23.440;2023-05-20T06:34:35;95345.81;;;40.21;16.53
68179;BME280;69812;42.632;23.440;2023-05-20T06:37:00;95355.19;;;41.74;14.82
68179;BME280;69812;42.632;23.440;2023-05-20T06:39:26;95348.22;;;42.69;13.36
68179;BME280;69812;42.632;23.440;2023-05-20T06:41:51;95354.34;;;42.91;14.26
68179;BME280;69812;42.632;23.440;2023-05-20T06:44:17;95342.44;;;43.04;14.45
68179;BME280;69812;42.632;23.440;2023-05-20T06:46:43;95340.00;;;42.65;14.60
68179;BME280;69812;42.632;23.440;2023-05-20T06:49:09;95342.97;;;42.85;14.08
68179;BME280;69812;42.632;23.440;2023-05-20T06:51:34;95334.47;;;42.28;14.04
68179;BME280;69812;42.632;23.440;2023-05-20T06:53:59;95339.66;;;41.92;14.17
68179;BME280;69812;42.632;23.440;2023-05-20T06:56:25;95342.31;;;39.68;15.55
68179;BME280;69812;42.632;23.440;2023-05-20T06:58:50;95344.94;;;39.42;15.76
68179;BME280;69812;42.632;23.440;2023-05-20T07:01:16;95338.09;;;40.19;15.81
68179;BME280;69812;42.632;23.440;2023-05-20T07:03:41;95339.50;;;39.73;15.13
68179;BME280;69812;42.632;23.440;2023-05-20T07:06:08;95326.44;;;41.57;13.79
68179;BME280;69812;42.632;23.440;2023-05-20T07:08:33;95344.25;;;43.74;13.29
68179;BME280;69812;42.632;23.440;2023-05-20T07:10:59;95328.34;;;43.72;12.87
68179;BME280;69812;42.632;23.440;2023-05-20T07:13:24;95328.38;;;45.01;12.55
68179;BME280;69812;42.632;23.440;2023-05-20T07:15:50;95328.63;;;45.98;12.56
68179;BME280;69812;42.632;23.440;2023-05-20T07:18:18;95322.94;;;46.42;10.77
68179;BME280;69812;42.632;23.440;2023-05-20T07:20:44;95321.50;;;46.48;11.38
68179;BME280;69812;42.632;23.440;2023-05-20T07:23:09;95310.75;;;47.02;10.73
68179;BME280;69812;42.632;23.440;2023-05-20T07:25:35;95314.13;;;47.45;10.05
68179;BME280;69812;42.632;23.440;2023-05-20T07:28:02;95314.88;;;46.26;11.42
68179;BME280;69812;42.632;23.440;2023-05-20T07:30:28;95322.72;;;46.12;11.32
68179;BME280;69812;42.632;23.440;2023-05-20T07:32:55;95317.44;;;46.39;10.75
68179;BME280;69812;42.632;23.440;2023-05-20T07:35:23;95304.50;;;45.22;12.06
68179;BME280;69812;42.632;23.440;2023-05-20T07:37:48;95309.75;;;44.39;11.49
68179;BME280;69812;42.632;23.440;2023-05-20T07:40:14;95315.69;;;42.53;12.62
68179;BME280;69812;42.632;23.440;2023-05-20T07:42:39;95317.66;;;43.63;12.38
68179;BME280;69812;42.632;23.440;2023-05-20T07:45:05;95319.59;;;44.60;11.63
68179;BME280;69812;42.632;23.440;2023-05-20T07:47:31;95316.63;;;45.44;11.33
68179;BME280;69812;42.632;23.440;2023-05-20T07:49:57;95310.13;;;43.81;12.37
68179;BME280;69812;42.632;23.440;2023-05-20T07:52:22;95306.72;;;44.85;11.59
68179;BME280;69812;42.632;23.440;2023-05-20T07:54:52;95309.44;;;43.72;11.62
68179;BME280;69812;42.632;23.440;2023-05-20T07:57:17;95296.44;;;43.90;11.35
68179;BME280;69812;42.632;23.440;2023-05-20T07:59:42;95310.59;;;46.06;11.10
68179;BME280;69812;42.632;23.440;2023-05-20T08:02:09;95304.84;;;43.48;12.40
68179;BME280;69812;42.632;23.440;2023-05-20T08:07:56;95318.91;;;42.13;12.61
68179;BME280;69812;42.632;23.440;2023-05-20T08:10:21;95307.13;;;40.87;14.32
68179;BME280;69812;42.632;23.440;2023-05-20T08:12:46;95307.41;;;39.68;15.34
68179;BME280;69812;42.632;23.440;2023-05-20T08:15:14;95302.09;;;37.89;16.03
68179;BME280;69812;42.632;23.440;2023-05-20T08:17:39;95306.69;;;37.75;16.55
68179;BME280;69812;42.632;23.440;2023-05-20T08:20:05;95302.47;;;33.34;20.85
68179;BME280;69812;42.632;23.440;2023-05-20T08:22:32;95291.69;;;30.14;24.47
68179;BME280;69812;42.632;23.440;2023-05-20T08:25:00;95297.59;;;27.36;29.33
68179;BME280;69812;42.632;23.440;2023-05-20T08:27:25;95296.16;;;25.99;29.85
68179;BME280;69812;42.632;23.440;2023-05-20T08:29:53;95295.66;;;25.30;32.69
68179;BME280;69812;42.632;23.440;2023-05-20T08:32:18;95309.22;;;24.90;32.78
68179;BME280;69812;42.632;23.440;2023-05-20T08:34:44;95287.38;;;23.64;35.70
68179;BME280;69812;42.632;23.440;2023-05-20T08:37:09;95295.44;;;23.30;36.19
68179;BME280;69812;42.632;23.440;2023-05-20T08:39:38;95286.53;;;22.80;38.47
68179;BME280;69812;42.632;23.440;2023-05-20T08:42:03;95293.41;;;22.61;39.13
68179;BME280;69812;42.632;23.440;2023-05-20T08:44:31;95296.63;;;21.89;38.28
68179;BME280;69812;42.632;23.440;2023-05-20T08:46:57;95304.44;;;21.76;41.02
68179;BME280;69812;42.632;23.440;2023-05-20T08:49:23;95294.00;;;21.76;40.78
68179;BME280;69812;42.632;23.440;2023-05-20T08:51:48;95289.25;;;21.31;40.76
68179;BME280;69812;42.632;23.440;2023-05-20T08:54:16;95305.50;;;21.33;42.23
68179;BME280;69812;42.632;23.440;2023-05-20T08:56:43;95289.78;;;21.75;42.55
68179;BME280;69812;42.632;23.440;2023-05-20T08:59:08;95289.56;;;21.70;40.89
68179;BME280;69812;42.632;23.440;2023-05-20T09:01:40;95301.19;;;21.54;43.51
68179;BME280;69812;42.632;23.440;2023-05-20T09:04:05;95280.63;;;21.38;41.43
68179;BME280;69812;42.632;23.440;2023-05-20T09:06:41;95295.00;;;21.75;40.94
68179;BME280;69812;42.632;23.440;2023-05-20T09:09:08;95273.28;;;21.54;42.61
68179;BME280;69812;42.632;23.440;2023-05-20T09:11:34;95285.19;;;21.22;42.39
68179;BME280;69812;42.632;23.440;2023-05-20T09:13:59;95283.81;;;20.50;42.26
68179;BME280;69812;42.632;23.440;2023-05-20T09:16:25;95283.69;;;20.93;41.13
68179;BME280;69812;42.632;23.440;2023-05-20T09:18:54;95269.88;;;20.99;41.67
68179;BME280;69812;42.632;23.440;2023-05-20T09:21:27;95276.47;;;21.50;40.18
68179;BME280;69812;42.632;23.440;2023-05-20T09:23:54;95270.50;;;21.96;40.30
68179;BME280;69812;42.632;23.440;2023-05-20T09:26:22;95259.81;;;21.51;39.70
68179;BME280;69812;42.632;23.440;2023-05-20T09:28:49;95268.50;;;21.78;40.97
68179;BME280;69812;42.632;23.440;2023-05-20T09:31:15;95252.00;;;21.64;41.50
68179;BME280;69812;42.632;23.440;2023-05-20T09:33:41;95271.09;;;21.78;39.39
68179;BME280;69812;42.632;23.440;2023-05-20T09:36:08;95266.50;;;21.93;39.80
68179;BME280;69812;42.632;23.440;2023-05-20T09:38:36;95254.84;;;22.36;40.04
68179;BME280;69812;42.632;23.440;2023-05-20T09:41:23;95239.94;;;22.03;41.48
68179;BME280;69812;42.632;23.440;2023-05-20T09:43:50;95261.25;;;21.93;40.71
68179;BME280;69812;42.632;23.440;2023-05-20T09:46:17;95240.13;;;21.48;39.46
68179;BME280;69812;42.632;23.440;2023-05-20T09:48:43;95247.09;;;21.34;40.41
68179;BME280;69812;42.632;23.440;2023-05-20T09:51:09;95256.06;;;21.12;39.36
68179;BME280;69812;42.632;23.440;2023-05-20T09:53:36;95246.59;;;21.04;42.44
68179;BME280;69812;42.632;23.440;2023-05-20T09:56:01;95240.03;;;21.15;43.51
68179;BME280;69812;42.632;23.440;2023-05-20T09:58:28;95244.59;;;21.00;40.67
68179;BME280;69812;42.632;23.440;2023-05-20T10:00:53;95233.81;;;21.23;40.45
68179;BME280;69812;42.632;23.440;2023-05-20T10:03:21;95227.06;;;21.42;39.75
68179;BME280;69812;42.632;23.440;2023-05-20T10:06:00;95205.19;;;21.49;40.29
68179;BME280;69812;42.632;23.440;2023-05-20T10:08:34;95247.34;;;21.53;40.91
68179;BME280;69812;42.632;23.440;2023-05-20T10:16:17;95215.41;;;21.44;39.74
68179;BME280;69812;42.632;23.440;2023-05-20T10:19:09;95205.19;;;21.63;40.64
68179;BME280;69812;42.632;23.440;2023-05-20T10:21:36;95203.97;;;21.59;40.39
68179;BME280;69812;42.632;23.440;2023-05-20T10:24:05;95181.09;;;21.54;41.45
68179;BME280;69812;42.632;23.440;2023-05-20T10:26:40;95199.38;;;21.81;37.15
68179;BME280;69812;42.632;23.440;2023-05-20T10:29:18;95196.16;;;21.59;37.80
68179;BME280;69812;42.632;23.440;2023-05-20T10:31:48;95204.78;;;22.06;38.29
68179;BME280;69812;42.632;23.440;2023-05-20T10:34:17;95209.19;;;21.92;39.83
68179;BME280;69812;42.632;23.440;2023-05-20T10:39:18;95197.34;;;22.03;38.97
68179;BME280;69812;42.632;23.440;2023-05-20T10:41:43;95195.53;;;22.23;36.88
68179;BME280;69812;42.632;23.440;2023-05-20T10:44:09;95183.88;;;21.79;38.98
68179;BME280;69812;42.632;23.440;2023-05-20T10:46:34;95192.53;;;21.66;38.75
68179;BME280;69812;42.632;23.440;2023-05-20T10:49:03;95185.69;;;21.45;41.21
68179;BME280;69812;42.632;23.440;2023-05-20T10:51:35;95174.38;;;21.18;39.31
68179;BME280;69812;42.632;23.440;2023-05-20T10:54:01;95160.31;;;20.99;40.06
68179;BME280;69812;42.632;23.440;2023-05-20T10:56:26;95173.16;;;21.21;39.07
68179;BME280;69812;42.632;23.440;2023-05-20T10:58:53;95167.81;;;21.89;39.01
68179;BME280;69812;42.632;23.440;2023-05-20T11:01:23;95172.78;;;22.17;38.36
68179;BME280;69812;42.632;23.440;2023-05-20T11:03:56;95172.81;;;22.10;38.64
68179;BME280;69812;42.632;23.440;2023-05-20T11:06:26;95165.59;;;21.79;37.08
68179;BME280;69812;42.632;23.440;2023-05-20T11:08:52;95149.75;;;21.67;38.83
68179;BME280;69812;42.632;23.440;2023-05-20T11:11:18;95142.53;;;21.43;39.32
68179;BME280;69812;42.632;23.440;2023-05-20T11:13:47;95150.94;;;21.85;38.97
68179;BME280;69812;42.632;23.440;2023-05-20T11:16:14;95158.94;;;22.30;37.55
68179;BME280;69812;42.632;23.440;2023-05-20T11:18:40;95155.47;;;22.43;37.65
68179;BME280;69812;42.632;23.440;2023-05-20T11:21:05;95170.41;;;22.09;37.06
68179;BME280;69812;42.632;23.440;2023-05-20T11:23:31;95140.50;;;21.65;38.52
68179;BME280;69812;42.632;23.440;2023-05-20T11:25:56;95142.03;;;22.26;38.15
68179;BME280;69812;42.632;23.440;2023-05-20T11:28:22;95127.31;;;22.31;37.69
68179;BME280;69812;42.632;23.440;2023-05-20T11:30:49;95134.56;;;22.43;36.95
68179;BME280;69812;42.632;23.440;2023-05-20T11:33:16;95149.94;;;21.52;37.57
68179;BME280;69812;42.632;23.440;2023-05-20T11:38:11;95138.44;;;21.33;38.29
68179;BME280;69812;42.632;23.440;2023-05-20T11:40:37;95135.03;;;21.33;39.03
68179;BME280;69812;42.632;23.440;2023-05-20T11:43:09;95136.28;;;21.50;38.31
68179;BME280;69812;42.632;23.440;2023-05-20T11:45:43;95128.25;;;21.65;37.88
68179;BME280;69812;42.632;23.440;2023-05-20T11:48:09;95119.03;;;21.56;36.25
68179;BME280;69812;42.632;23.440;2023-05-20T11:50:38;95126.81;;;21.89;37.30
68179;BME280;69812;42.632;23.440;2023-05-20T11:53:15;95126.41;;;21.92;36.91
68179;BME280;69812;42.632;23.440;2023-05-20T11:58:22;95131.44;;;21.87;37.01
68179;BME280;69812;42.632;23.440;2023-05-20T12:00:48;95126.84;;;21.69;36.63
68179;BME280;69812;42.632;23.440;2023-05-20T12:03:16;95110.16;;;21.90;37.17
68179;BME280;69812;42.632;23.440;2023-05-20T12:05:42;95117.28;;;22.22;37.46
68179;BME280;69812;42.632;23.440;2023-05-20T12:08:07;95128.22;;;21.85;38.95
68179;BME280;69812;42.632;23.440;2023-05-20T12:10:33;95122.34;;;22.03;38.99
68179;BME280;69812;42.632;23.440;2023-05-20T12:12:59;95145.00;;;20.89;40.00
68179;BME280;69812;42.632;23.440;2023-05-20T12:15:25;95159.91;;;19.35;43.31
68179;BME280;69812;42.632;23.440;2023-05-20T12:17:52;95166.06;;;18.54;44.64
68179;BME280;69812;42.632;23.440;2023-05-20T12:20:20;95159.09;;;18.10;45.67
68179;BME280;69812;42.632;23.440;2023-05-20T12:22:46;95174.94;;;18.00;46.68
68179;BME280;69812;42.632;23.440;2023-05-20T12:25:12;95169.78;;;17.77;48.39
68179;BME280;69812;42.632;23.440;2023-05-20T12:27:40;95169.41;;;17.65;50.72
68179;BME280;69812;42.632;23.440;2023-05-20T12:30:06;95181.59;;;17.19;51.70
68179;BME280;69812;42.632;23.440;2023-05-20T12:32:32;95193.53;;;17.28;52.22
68179;BME280;69812;42.632;23.440;2023-05-20T12:34:57;95187.22;;;17.45;53.12
68179;BME280;69812;42.632;23.440;2023-05-20T12:37:25;95181.41;;;17.81;51.83
68179;BME280;69812;42.632;23.440;2023-05-20T12:39:51;95180.78;;;18.02;51.80
68179;BME280;69812;42.632;23.440;2023-05-20T12:42:18;95177.91;;;18.42;51.84
68179;BME280;69812;42.632;23.440;2023-05-20T12:44:44;95179.34;;;18.96;51.35
68179;BME280;69812;42.632;23.440;2023-05-20T12:47:09;95169.78;;;19.18;48.17
68179;BME280;69812;42.632;23.440;2023-05-20T12:49:34;95170.69;;;19.32;47.88
68179;BME280;69812;42.632;23.440;2023-05-20T12:52:00;95175.13;;;19.59;47.08
68179;BME280;69812;42.632;23.440;2023-05-20T12:54:25;95163.19;;;19.65;46.48
68179;BME280;69812;42.632;23.440;2023-05-20T12:56:52;95168.66;;;19.70;46.16
68179;BME280;69812;42.632;23.440;2023-05-20T12:59:17;95166.56;;;20.22;46.11
68179;BME280;69812;42.632;23.440;2023-05-20T13:01:43;95154.72;;;20.54;44.21
68179;BME280;69812;42.632;23.440;2023-05-20T13:04:08;95144.47;;;21.21;43.28
68179;BME280;69812;42.632;23.440;2023-05-20T13:06:34;95133.22;;;21.13;42.56